Wind From: 11-12-2017 04:25 Until: 16:00 warning for: Wind Level: Orange info button

Power and phone distribution networks may be disrupted for relatively long periods., Roofs and chimneys can be damaged. , Tree branches may break. , Vehicles can be deported. , Traffic may be disrupted, particularly on secondary roads in forest areas. Limit your trips. , Limit your speed in highway driving, especially if you drive a vehicle or hitch sensitive to wind. , Do not go for walks in forests or along the coast., In town, be vigilant against possible falling objects., Do not work on roofs and do not touch any electrical line fallen on the ground., Store or secure sensitive objects to wind or likely to be damaged., Always install power generators outside buildings. 


Meteo18 Weather Cam more information Meteo18 Weather Cam


Thunder radar more information blitzortung!


Rain radar more information rain snow radar


Visit our other weather sites:

Template documentation
and downloads

And another site



Weather Underground History page Text

Daily Summary for April 17, 2016 Units:  Metric    English   Both
« Previous Day
Next Day »
Daily Weekly Monthly Yearly Custom
  High: Low: Average:
Temperature: 11.4 °C 6.1 °C 8.3 °C
Dew Point: 8.7 °C 2.7 °C 5.5 °C
Humidity: 97 % 57 % 84 %
Wind Speed: 11.3 km/h 0.0 km/h 2.7 km/h
Wind Gust: 17.7 km/h - -
Wind:- - ENE
Pressure: 1018.8 hPa 1006.0 hPa -
Precipitation: 3.6 mm    
Historical Graphs
 
 
Tabular Data for April 17, 2016
Time Temperature Dew Point Pressure Wind Wind Speed Wind Gust Humidity Rainfall Rate (Hourly)
00:02 9.1 °C 8.5 °C 1006.0 hPa Calm     96 % 0.5 mm
00:12 9.1 °C 8.6 °C 1006.0 hPa Calm     97 % 0.5 mm
00:17 9.1 °C 8.6 °C 1006.0 hPa Calm     97 % 0.5 mm
00:22 9.1 °C 8.6 °C 1006.0 hPa Calm     97 % 0.5 mm
00:27 9.1 °C 8.6 °C 1006.3 hPa Calm     97 % 0.5 mm
00:32 9.1 °C 8.6 °C 1006.3 hPa Calm     97 % 0.5 mm
00:37 9.2 °C 8.7 °C 1006.3 hPa Calm     97 % 0.8 mm
00:42 9.2 °C 8.7 °C 1006.3 hPa Calm     97 % 1.0 mm
00:47 9.1 °C 8.6 °C 1006.0 hPa Calm     97 % 0.8 mm
00:52 9.1 °C 8.6 °C 1006.3 hPa Calm     97 % 1.0 mm
00:57 9.1 °C 8.6 °C 1006.3 hPa Calm     97 % 1.3 mm
01:02 9.1 °C 8.6 °C 1006.3 hPa Calm     97 % 1.3 mm
01:07 9.0 °C 8.5 °C 1006.3 hPa Calm     97 % 1.0 mm
01:12 8.9 °C 8.4 °C 1006.0 hPa Calm     97 % 1.0 mm
01:17 8.9 °C 8.4 °C 1006.0 hPa Calm     97 % 1.0 mm
01:22 8.9 °C 8.4 °C 1006.3 hPa East 1.6 km/h 4.8 km/h 97 % 1.0 mm
01:27 8.9 °C 8.4 °C 1006.3 hPa Calm   4.8 km/h 97 % 0.8 mm
01:32 8.9 °C 8.4 °C 1006.3 hPa Calm   4.8 km/h 97 % 0.8 mm
01:37 8.8 °C 8.3 °C 1006.3 hPa Calm   4.8 km/h 97 % 0.5 mm
01:42 8.8 °C 8.3 °C 1006.3 hPa Calm   1.6 km/h 97 % 0.5 mm
01:52 8.9 °C 8.4 °C 1006.3 hPa Calm   1.6 km/h 97 % 0.0 mm
01:57 8.8 °C 8.3 °C 1006.7 hPa ENE 1.6 km/h 1.6 km/h 97 % 0.0 mm
02:02 8.7 °C 8.1 °C 1006.7 hPa NE 1.6 km/h 4.8 km/h 96 % 0.0 mm
02:07 8.5 °C 7.9 °C 1006.7 hPa Calm   4.8 km/h 96 % 0.0 mm
02:12 8.3 °C 7.7 °C 1006.7 hPa Calm   4.8 km/h 96 % 0.0 mm
02:22 8.3 °C 7.7 °C 1006.7 hPa Calm   1.6 km/h 96 % 0.0 mm
02:32 8.2 °C 7.6 °C 1006.7 hPa Calm   1.6 km/h 96 % 0.0 mm
02:37 8.2 °C 7.6 °C 1006.7 hPa Calm   3.2 km/h 96 % 0.0 mm
02:42 8.3 °C 7.7 °C 1006.7 hPa Calm   4.8 km/h 96 % 0.0 mm
02:47 8.3 °C 7.7 °C 1006.7 hPa ENE 1.6 km/h 4.8 km/h 96 % 0.0 mm
02:52 8.3 °C 7.7 °C 1006.7 hPa Calm   4.8 km/h 96 % 0.0 mm
02:57 8.3 °C 7.7 °C 1006.7 hPa ENE 1.6 km/h 4.8 km/h 96 % 0.0 mm
03:02 8.3 °C 7.7 °C 1006.7 hPa Calm   4.8 km/h 96 % 0.3 mm
03:12 8.3 °C 7.7 °C 1006.7 hPa Calm   4.8 km/h 96 % 0.5 mm
03:22 8.3 °C 7.7 °C 1006.7 hPa Calm   4.8 km/h 96 % 0.5 mm
03:27 8.3 °C 7.7 °C 1006.7 hPa Calm   4.8 km/h 96 % 0.5 mm
03:32 8.2 °C 7.6 °C 1007.0 hPa Calm   4.8 km/h 96 % 0.5 mm
03:37 8.2 °C 7.6 °C 1007.0 hPa Calm   8.0 km/h 96 % 0.5 mm
03:42 8.1 °C 7.5 °C 1007.0 hPa ENE 1.6 km/h 8.0 km/h 96 % 0.5 mm
03:52 7.9 °C 7.1 °C 1007.0 hPa Calm   6.4 km/h 95 % 0.8 mm
03:57 7.9 °C 7.1 °C 1007.0 hPa Calm   6.4 km/h 95 % 0.5 mm
04:02 7.8 °C 7.0 °C 1007.0 hPa Calm   6.4 km/h 95 % 0.5 mm
04:12 7.8 °C 7.0 °C 1007.0 hPa Calm   6.4 km/h 95 % 0.5 mm
04:17 7.8 °C 7.0 °C 1007.0 hPa Calm   4.8 km/h 95 % 0.5 mm
04:22 7.8 °C 7.0 °C 1007.0 hPa NE 1.6 km/h 4.8 km/h 95 % 0.3 mm
04:27 7.8 °C 7.0 °C 1007.0 hPa Calm   4.8 km/h 95 % 0.3 mm
04:32 7.8 °C 7.2 °C 1007.3 hPa Calm   4.8 km/h 96 % 0.3 mm
04:37 7.9 °C 7.3 °C 1007.3 hPa Calm   3.2 km/h 96 % 0.3 mm
04:42 7.9 °C 7.3 °C 1007.3 hPa Calm   3.2 km/h 96 % 0.3 mm
04:47 7.9 °C 7.3 °C 1007.3 hPa Calm   1.6 km/h 96 % 0.0 mm
04:52 7.9 °C 7.3 °C 1007.3 hPa Calm   1.6 km/h 96 % 0.0 mm
05:02 7.9 °C 7.3 °C 1007.3 hPa Calm   1.6 km/h 96 % 0.3 mm
05:07 7.9 °C 7.3 °C 1007.7 hPa Calm   1.6 km/h 96 % 0.3 mm
05:12 8.0 °C 7.4 °C 1007.7 hPa Calm   1.6 km/h 96 % 0.3 mm
05:17 8.0 °C 7.4 °C 1007.7 hPa Calm   1.6 km/h 96 % 0.3 mm
05:22 7.9 °C 7.3 °C 1007.7 hPa Calm     96 % 0.3 mm
05:27 7.9 °C 7.3 °C 1007.7 hPa Calm   3.2 km/h 96 % 0.5 mm
05:32 7.8 °C 7.2 °C 1007.7 hPa NE 1.6 km/h 3.2 km/h 96 % 0.5 mm
05:37 7.8 °C 7.2 °C 1007.7 hPa NE 1.6 km/h 3.2 km/h 96 % 1.0 mm
05:42 7.8 °C 7.2 °C 1007.7 hPa Calm   4.8 km/h 96 % 1.0 mm
05:47 7.8 °C 7.2 °C 1007.7 hPa East 1.6 km/h 4.8 km/h 96 % 1.0 mm
05:57 7.5 °C 6.9 °C 1008.0 hPa NE 3.2 km/h 6.4 km/h 96 % 1.0 mm
06:02 7.3 °C 6.7 °C 1008.0 hPa NE 4.8 km/h 6.4 km/h 96 % 1.0 mm
06:12 7.2 °C 6.6 °C 1008.0 hPa NNE 1.6 km/h 8.0 km/h 96 % 1.3 mm
06:17 7.2 °C 6.6 °C 1008.0 hPa NE 3.2 km/h 8.0 km/h 96 % 1.3 mm
06:22 7.1 °C 6.5 °C 1008.0 hPa NE 1.6 km/h 8.0 km/h 96 % 1.3 mm
06:27 7.2 °C 6.6 °C 1008.4 hPa NE 3.2 km/h 8.0 km/h 96 % 1.3 mm
06:37 7.2 °C 6.6 °C 1008.4 hPa East 1.6 km/h 8.0 km/h 96 % 0.8 mm
06:42 7.1 °C 6.5 °C 1008.4 hPa Calm   6.4 km/h 96 % 0.5 mm
06:47 7.1 °C 6.5 °C 1008.4 hPa North 3.2 km/h 6.4 km/h 96 % 0.5 mm
06:52 6.9 °C 6.2 °C 1008.4 hPa NE 4.8 km/h 9.7 km/h 95 % 0.3 mm
06:57 6.8 °C 6.1 °C 1008.7 hPa NE 8.0 km/h 9.7 km/h 95 % 0.3 mm
07:02 6.7 °C 6.0 °C 1008.7 hPa SSE 3.2 km/h 12.9 km/h 95 % 0.3 mm
07:07 6.7 °C 6.0 °C 1008.7 hPa East 1.6 km/h 12.9 km/h 95 % 0.0 mm
07:12 6.6 °C 5.7 °C 1009.0 hPa ENE 3.2 km/h 12.9 km/h 94 % 0.0 mm
07:17 6.6 °C 5.9 °C 1009.0 hPa ENE 1.6 km/h 14.5 km/h 95 % 0.0 mm
07:22 6.6 °C 5.9 °C 1009.0 hPa Calm   14.5 km/h 95 % 0.0 mm
07:32 6.6 °C 5.9 °C 1009.4 hPa NE 4.8 km/h 6.4 km/h 95 % 0.0 mm
07:37 6.6 °C 5.9 °C 1009.4 hPa North 1.6 km/h 6.4 km/h 95 % 0.0 mm
07:42 6.7 °C 6.0 °C 1009.4 hPa Calm   6.4 km/h 95 % 0.0 mm
07:47 6.6 °C 5.9 °C 1009.4 hPa Calm   6.4 km/h 95 % 0.0 mm
07:52 6.7 °C 6.0 °C 1009.4 hPa NE 3.2 km/h 6.4 km/h 95 % 0.0 mm
07:57 6.7 °C 6.1 °C 1009.4 hPa ENE 4.8 km/h 6.4 km/h 96 % 0.0 mm
08:02 6.7 °C 6.0 °C 1009.4 hPa ENE 3.2 km/h 6.4 km/h 95 % 0.0 mm
08:07 6.7 °C 6.1 °C 1009.4 hPa East 3.2 km/h 6.4 km/h 96 % 0.3 mm
08:12 6.8 °C 6.2 °C 1009.7 hPa Calm   8.0 km/h 96 % 0.3 mm
08:17 6.8 °C 6.1 °C 1009.7 hPa ENE 1.6 km/h 8.0 km/h 95 % 0.3 mm
08:22 6.9 °C 6.3 °C 1009.7 hPa Calm   9.7 km/h 96 % 0.3 mm
08:27 6.9 °C 6.3 °C 1010.0 hPa NNE 3.2 km/h 9.7 km/h 96 % 0.3 mm
08:32 6.9 °C 6.2 °C 1010.0 hPa NE 4.8 km/h 9.7 km/h 95 % 0.3 mm
08:37 6.9 °C 6.2 °C 1010.0 hPa NE 8.0 km/h 8.0 km/h 95 % 0.3 mm
08:47 6.7 °C 5.8 °C 1010.4 hPa Calm   11.3 km/h 94 % 0.3 mm
08:52 6.8 °C 6.1 °C 1010.4 hPa NE 4.8 km/h 11.3 km/h 95 % 0.3 mm
08:57 6.8 °C 5.7 °C 1010.4 hPa NE 6.4 km/h 11.3 km/h 93 % 0.0 mm
09:02 6.8 °C 5.7 °C 1010.4 hPa ESE 3.2 km/h 9.7 km/h 93 % 0.0 mm
09:07 6.9 °C 6.0 °C 1010.4 hPa ENE 1.6 km/h 9.7 km/h 94 % 0.0 mm
09:12 6.9 °C 5.8 °C 1010.4 hPa East 1.6 km/h 9.7 km/h 93 % 0.0 mm
09:17 6.9 °C 5.8 °C 1010.4 hPa SE 3.2 km/h 9.7 km/h 93 % 0.0 mm
09:22 6.9 °C 5.7 °C 1010.7 hPa SE 1.6 km/h 11.3 km/h 92 % 0.0 mm
09:27 6.9 °C 5.8 °C 1010.7 hPa ENE 1.6 km/h 11.3 km/h 93 % 0.0 mm
09:32 7.0 °C 5.8 °C 1010.7 hPa ENE 6.4 km/h 11.3 km/h 92 % 0.0 mm
09:37 7.1 °C 5.9 °C 1011.1 hPa NE 6.4 km/h 12.9 km/h 92 % 0.0 mm
09:42 7.0 °C 5.8 °C 1011.1 hPa NE 4.8 km/h 12.9 km/h 92 % 0.0 mm
09:52 7.2 °C 5.8 °C 1011.1 hPa ESE 3.2 km/h 12.9 km/h 91 % 0.0 mm
09:57 7.4 °C 6.0 °C 1011.1 hPa East 1.6 km/h 12.9 km/h 91 % 0.0 mm
10:02 7.6 °C 6.2 °C 1011.1 hPa ENE 3.2 km/h 12.9 km/h 91 % 0.0 mm
10:07 7.8 °C 6.3 °C 1011.1 hPa ENE 4.8 km/h 11.3 km/h 90 % 0.0 mm
10:12 8.0 °C 6.3 °C 1011.4 hPa East 1.6 km/h 9.7 km/h 89 % 0.0 mm
10:17 8.0 °C 6.3 °C 1011.4 hPa NE 3.2 km/h 9.7 km/h 89 % 0.0 mm
10:22 7.9 °C 6.2 °C 1011.4 hPa East 4.8 km/h 12.9 km/h 89 % 0.0 mm
10:32 7.8 °C 6.3 °C 1011.7 hPa SE 1.6 km/h 12.9 km/h 90 % 0.0 mm
10:37 7.7 °C 6.0 °C 1011.7 hPa NE 4.8 km/h 12.9 km/h 89 % 0.0 mm
10:42 7.7 °C 6.0 °C 1011.7 hPa NE 8.0 km/h 14.5 km/h 89 % 0.0 mm
10:47 7.7 °C 6.2 °C 1011.7 hPa ESE 3.2 km/h 14.5 km/h 90 % 0.0 mm
10:52 7.8 °C 6.3 °C 1012.1 hPa ESE 4.8 km/h 14.5 km/h 90 % 0.0 mm
10:57 7.8 °C 5.9 °C 1012.1 hPa NE 6.4 km/h 14.5 km/h 88 % 0.0 mm
11:02 7.7 °C 6.0 °C 1012.1 hPa NE 8.0 km/h 16.1 km/h 89 % 0.0 mm
11:07 7.8 °C 6.1 °C 1012.1 hPa NE 6.4 km/h 16.1 km/h 89 % 0.0 mm
11:12 7.9 °C 6.2 °C 1012.1 hPa NNE 6.4 km/h 16.1 km/h 89 % 0.0 mm
11:17 7.9 °C 6.0 °C 1012.1 hPa NE 6.4 km/h 12.9 km/h 88 % 0.0 mm
11:22 8.0 °C 6.0 °C 1012.4 hPa ESE 1.6 km/h 12.9 km/h 87 % 0.0 mm
11:27 7.9 °C 5.9 °C 1012.4 hPa ESE 1.6 km/h 12.9 km/h 87 % 0.0 mm
11:32 8.1 °C 6.2 °C 1012.4 hPa ENE 1.6 km/h 14.5 km/h 88 % 0.0 mm
11:37 8.1 °C 6.2 °C 1012.4 hPa ESE 1.6 km/h 14.5 km/h 88 % 0.0 mm
11:42 8.2 °C 6.0 °C 1012.8 hPa East 1.6 km/h 14.5 km/h 86 % 0.0 mm
11:47 8.2 °C 6.2 °C 1012.8 hPa NNW 6.4 km/h 11.3 km/h 87 % 0.0 mm
11:52 8.3 °C 6.3 °C 1012.8 hPa East 3.2 km/h 12.9 km/h 87 % 0.0 mm
12:02 8.3 °C 6.3 °C 1012.8 hPa ENE 4.8 km/h 12.9 km/h 87 % 0.0 mm
12:07 8.6 °C 6.6 °C 1012.8 hPa ESE 3.2 km/h 11.3 km/h 87 % 0.0 mm
12:12 8.6 °C 5.9 °C 1012.8 hPa NNE 4.8 km/h 12.9 km/h 83 % 0.0 mm
12:17 8.4 °C 5.7 °C 1012.8 hPa NNE 6.4 km/h 12.9 km/h 83 % 0.0 mm
12:22 8.5 °C 6.0 °C 1012.8 hPa ESE 1.6 km/h 16.1 km/h 84 % 0.0 mm
12:27 8.6 °C 6.0 °C 1012.8 hPa NE 8.0 km/h 16.1 km/h 84 % 0.0 mm
12:32 8.6 °C 6.0 °C 1012.8 hPa East 3.2 km/h 12.9 km/h 84 % 0.0 mm
12:37 8.7 °C 6.1 °C 1012.8 hPa ESE 3.2 km/h 12.9 km/h 84 % 0.0 mm
12:42 8.7 °C 6.0 °C 1012.8 hPa East 1.6 km/h 12.9 km/h 83 % 0.0 mm
12:47 8.7 °C 6.1 °C 1012.8 hPa NE 1.6 km/h 11.3 km/h 84 % 0.0 mm
12:52 8.7 °C 5.8 °C 1013.1 hPa East 4.8 km/h 11.3 km/h 82 % 0.0 mm
12:57 8.8 °C 6.1 °C 1013.1 hPa NE 6.4 km/h 12.9 km/h 83 % 0.0 mm
13:02 8.8 °C 6.2 °C 1013.1 hPa NE 4.8 km/h 12.9 km/h 84 % 0.0 mm
13:07 8.7 °C 6.1 °C 1013.1 hPa ENE 8.0 km/h 12.9 km/h 84 % 0.0 mm
13:12 8.6 °C 5.7 °C 1013.1 hPa NE 4.8 km/h 16.1 km/h 82 % 0.0 mm
13:17 8.4 °C 5.7 °C 1013.1 hPa ENE 4.8 km/h 16.1 km/h 83 % 0.0 mm
13:22 8.4 °C 5.9 °C 1013.1 hPa NE 9.7 km/h 16.1 km/h 84 % 0.0 mm
13:27 8.3 °C 5.8 °C 1013.4 hPa ENE 3.2 km/h 16.1 km/h 84 % 0.0 mm
13:32 8.3 °C 5.6 °C 1013.4 hPa East 4.8 km/h 16.1 km/h 83 % 0.0 mm
13:37 8.6 °C 5.9 °C 1013.4 hPa NE 8.0 km/h 16.1 km/h 83 % 0.0 mm
13:42 8.6 °C 6.0 °C 1013.4 hPa NE 9.7 km/h 16.1 km/h 84 % 0.0 mm
13:47 8.3 °C 5.8 °C 1013.4 hPa ENE 6.4 km/h 16.1 km/h 84 % 0.0 mm
13:52 8.3 °C 5.8 °C 1013.8 hPa NE 1.6 km/h 16.1 km/h 84 % 0.0 mm
13:57 9.1 °C 6.4 °C 1013.8 hPa NE 9.7 km/h 16.1 km/h 83 % 0.0 mm
14:02 9.2 °C 5.7 °C 1013.8 hPa Calm   12.9 km/h 79 % 0.0 mm
14:07 9.1 °C 5.7 °C 1013.8 hPa NE 11.3 km/h 14.5 km/h 79 % 0.0 mm
14:12 8.9 °C 5.3 °C 1013.8 hPa NE 4.8 km/h 14.5 km/h 78 % 0.0 mm
14:17 8.7 °C 5.1 °C 1013.8 hPa ENE 9.7 km/h 17.7 km/h 78 % 0.0 mm
14:22 8.8 °C 5.2 °C 1013.8 hPa NE 4.8 km/h 17.7 km/h 78 % 0.0 mm
14:27 9.1 °C 4.7 °C 1013.8 hPa North 3.2 km/h 11.3 km/h 74 % 0.0 mm
14:32 9.4 °C 5.4 °C 1013.8 hPa East 3.2 km/h 11.3 km/h 76 % 0.0 mm
14:37 9.5 °C 4.9 °C 1013.8 hPa Calm   11.3 km/h 73 % 0.0 mm
14:42 9.8 °C 4.8 °C 1013.8 hPa Calm   12.9 km/h 71 % 0.0 mm
14:47 9.8 °C 5.4 °C 1013.8 hPa North 6.4 km/h 12.9 km/h 74 % 0.0 mm
14:52 9.7 °C 4.7 °C 1013.8 hPa ENE 1.6 km/h 14.5 km/h 71 % 0.0 mm
15:02 9.6 °C 4.6 °C 1013.8 hPa NE 3.2 km/h 14.5 km/h 71 % 0.0 mm
15:07 9.5 °C 4.3 °C 1013.8 hPa NE 6.4 km/h 11.3 km/h 70 % 0.0 mm
15:12 9.4 °C 4.2 °C 1014.1 hPa NE 4.8 km/h 9.7 km/h 70 % 0.0 mm
15:17 9.5 °C 3.5 °C 1014.1 hPa ENE 3.2 km/h 14.5 km/h 66 % 0.0 mm
15:22 9.7 °C 4.3 °C 1014.1 hPa NE 6.4 km/h 14.5 km/h 69 % 0.0 mm
15:27 9.9 °C 3.4 °C 1014.1 hPa NE 6.4 km/h 14.5 km/h 64 % 0.0 mm
15:32 9.9 °C 3.6 °C 1014.1 hPa East 4.8 km/h 11.3 km/h 65 % 0.0 mm
15:37 10.1 °C 4.7 °C 1014.1 hPa North 1.6 km/h 9.7 km/h 69 % 0.0 mm
15:42 10.2 °C 3.2 °C 1014.1 hPa NE 4.8 km/h 9.7 km/h 62 % 0.0 mm
15:47 10.5 °C 3.8 °C 1014.1 hPa NNE 3.2 km/h 9.7 km/h 63 % 0.0 mm
15:52 10.8 °C 3.8 °C 1013.8 hPa NNE 6.4 km/h 9.7 km/h 62 % 0.0 mm
15:57 10.6 °C 2.9 °C 1013.8 hPa NNE 6.4 km/h 11.3 km/h 59 % 0.0 mm
16:02 10.8 °C 3.1 °C 1013.8 hPa ESE 1.6 km/h 11.3 km/h 59 % 0.0 mm
16:12 11.4 °C 4.1 °C 1014.1 hPa ESE 1.6 km/h 9.7 km/h 61 % 0.0 mm
16:17 11.0 °C 2.8 °C 1014.1 hPa Calm   9.7 km/h 57 % 0.0 mm
16:22 10.8 °C 4.3 °C 1014.1 hPa ENE 3.2 km/h 9.7 km/h 64 % 0.0 mm
16:27 10.4 °C 2.7 °C 1014.1 hPa NE 8.0 km/h 11.3 km/h 59 % 0.0 mm
16:32 10.4 °C 3.7 °C 1014.1 hPa NE 3.2 km/h 11.3 km/h 63 % 0.0 mm
16:37 10.7 °C 3.9 °C 1014.1 hPa NNE 4.8 km/h 12.9 km/h 63 % 0.0 mm
16:42 10.6 °C 3.6 °C 1014.1 hPa NE 4.8 km/h 12.9 km/h 62 % 0.0 mm
16:47 10.5 °C 3.3 °C 1014.1 hPa NE 4.8 km/h 12.9 km/h 61 % 0.0 mm
16:52 10.5 °C 4.6 °C 1014.4 hPa East 9.7 km/h 12.9 km/h 67 % 0.0 mm
16:57 11.1 °C 5.0 °C 1014.4 hPa NE 3.2 km/h 12.9 km/h 66 % 0.0 mm
17:02 11.0 °C 3.5 °C 1014.4 hPa ENE 1.6 km/h 12.9 km/h 60 % 0.0 mm
17:12 10.7 °C 3.5 °C 1014.4 hPa NE 3.2 km/h 11.3 km/h 61 % 0.0 mm
17:17 10.7 °C 3.0 °C 1014.4 hPa NNE 4.8 km/h 9.7 km/h 59 % 0.0 mm
17:22 10.5 °C 3.8 °C 1014.4 hPa NNE 9.7 km/h 9.7 km/h 63 % 0.0 mm
17:32 10.6 °C 4.1 °C 1014.4 hPa ESE 1.6 km/h 11.3 km/h 64 % 0.0 mm
17:37 10.7 °C 3.9 °C 1014.4 hPa NE 3.2 km/h 11.3 km/h 63 % 0.0 mm
17:42 10.8 °C 3.3 °C 1014.4 hPa ENE 3.2 km/h 11.3 km/h 60 % 0.0 mm
17:47 10.8 °C 3.6 °C 1014.4 hPa East 3.2 km/h 9.7 km/h 61 % 0.0 mm
17:52 10.4 °C 3.7 °C 1014.4 hPa NNE 6.4 km/h 11.3 km/h 63 % 0.0 mm
17:57 10.2 °C 4.1 °C 1014.8 hPa NE 4.8 km/h 11.3 km/h 66 % 0.0 mm
18:02 10.2 °C 3.2 °C 1014.8 hPa NNE 4.8 km/h 11.3 km/h 62 % 0.0 mm
18:07 10.2 °C 3.2 °C 1014.8 hPa NNE 3.2 km/h 9.7 km/h 62 % 0.0 mm
18:17 10.6 °C 3.6 °C 1014.8 hPa Calm   9.7 km/h 62 % 0.0 mm
18:22 10.7 °C 3.7 °C 1014.8 hPa East 3.2 km/h 11.3 km/h 62 % 0.0 mm
18:27 10.6 °C 3.2 °C 1014.8 hPa NE 4.8 km/h 11.3 km/h 60 % 0.0 mm
18:32 10.1 °C 3.6 °C 1015.1 hPa ENE 3.2 km/h 11.3 km/h 64 % 0.0 mm
18:37 9.8 °C 4.0 °C 1015.1 hPa ENE 1.6 km/h 11.3 km/h 67 % 0.0 mm
18:42 9.6 °C 3.6 °C 1015.1 hPa NNE 6.4 km/h 11.3 km/h 66 % 0.0 mm
18:47 9.5 °C 3.0 °C 1015.1 hPa NE 4.8 km/h 12.9 km/h 64 % 0.0 mm
18:52 9.5 °C 3.9 °C 1015.1 hPa ENE 1.6 km/h 12.9 km/h 68 % 0.0 mm
18:57 9.4 °C 3.6 °C 1015.5 hPa ENE 3.2 km/h 12.9 km/h 67 % 0.0 mm
19:02 9.3 °C 3.7 °C 1015.5 hPa NE 3.2 km/h 11.3 km/h 68 % 0.0 mm
19:12 9.2 °C 3.6 °C 1015.5 hPa Calm   11.3 km/h 68 % 0.0 mm
19:17 9.2 °C 4.2 °C 1015.5 hPa Calm   6.4 km/h 71 % 0.0 mm
19:22 9.3 °C 3.5 °C 1015.5 hPa NE 1.6 km/h 6.4 km/h 67 % 0.0 mm
19:32 9.3 °C 3.5 °C 1015.5 hPa NE 3.2 km/h 8.0 km/h 67 % 0.0 mm
19:37 9.2 °C 3.6 °C 1015.5 hPa Calm   8.0 km/h 68 % 0.0 mm
19:47 8.9 °C 4.5 °C 1015.8 hPa ENE 1.6 km/h 6.4 km/h 74 % 0.0 mm
19:52 8.8 °C 4.2 °C 1015.8 hPa Calm   6.4 km/h 73 % 0.0 mm
19:57 8.7 °C 3.9 °C 1015.8 hPa NE 1.6 km/h 8.0 km/h 72 % 0.0 mm
20:07 8.6 °C 3.2 °C 1016.1 hPa East 1.6 km/h 11.3 km/h 69 % 0.0 mm
20:12 8.4 °C 3.2 °C 1016.1 hPa NE 1.6 km/h 11.3 km/h 70 % 0.0 mm
20:17 8.3 °C 3.1 °C 1016.1 hPa NE 4.8 km/h 11.3 km/h 70 % 0.0 mm
20:22 8.1 °C 3.0 °C 1016.1 hPa NNE 1.6 km/h 12.9 km/h 70 % 0.0 mm
20:27 7.8 °C 2.9 °C 1016.5 hPa ENE 3.2 km/h 12.9 km/h 71 % 0.0 mm
20:32 7.7 °C 3.2 °C 1016.5 hPa NE 6.4 km/h 8.0 km/h 73 % 0.0 mm
20:42 7.3 °C 3.2 °C 1016.5 hPa ENE 1.6 km/h 6.4 km/h 75 % 0.0 mm
20:47 7.2 °C 3.1 °C 1016.5 hPa NNE 3.2 km/h 6.4 km/h 75 % 0.0 mm
20:52 7.1 °C 3.2 °C 1016.8 hPa East 3.2 km/h 8.0 km/h 76 % 0.0 mm
20:57 7.1 °C 3.2 °C 1016.8 hPa East 1.6 km/h 8.0 km/h 76 % 0.0 mm
21:02 7.1 °C 3.2 °C 1016.8 hPa NE 6.4 km/h 8.0 km/h 76 % 0.0 mm
21:12 7.1 °C 3.3 °C 1016.8 hPa NE 3.2 km/h 9.7 km/h 77 % 0.0 mm
21:22 6.8 °C 3.6 °C 1017.2 hPa ENE 1.6 km/h 9.7 km/h 80 % 0.0 mm
21:27 6.7 °C 3.7 °C 1017.2 hPa Calm   4.8 km/h 81 % 0.0 mm
21:32 6.7 °C 3.3 °C 1017.2 hPa Calm   6.4 km/h 79 % 0.0 mm
21:42 6.7 °C 3.5 °C 1017.5 hPa Calm   6.4 km/h 80 % 0.0 mm
21:47 6.7 °C 3.5 °C 1017.5 hPa Calm   4.8 km/h 80 % 0.0 mm
21:52 6.7 °C 3.5 °C 1017.8 hPa NE 1.6 km/h 4.8 km/h 80 % 0.0 mm
21:57 6.8 °C 3.4 °C 1017.8 hPa NE 8.0 km/h 8.0 km/h 79 % 0.0 mm
22:02 6.8 °C 3.8 °C 1017.8 hPa NE 1.6 km/h 8.0 km/h 81 % 0.0 mm
22:07 6.8 °C 3.6 °C 1017.8 hPa NE 1.6 km/h 8.0 km/h 80 % 0.0 mm
22:12 6.8 °C 3.8 °C 1017.8 hPa ENE 1.6 km/h 11.3 km/h 81 % 0.0 mm
22:17 6.9 °C 3.9 °C 1017.8 hPa NE 1.6 km/h 11.3 km/h 81 % 0.0 mm
22:22 6.9 °C 3.9 °C 1017.8 hPa Calm   11.3 km/h 81 % 0.0 mm
22:27 6.8 °C 3.9 °C 1017.8 hPa NE 6.4 km/h 6.4 km/h 82 % 0.0 mm
22:32 6.8 °C 3.9 °C 1017.8 hPa NE 3.2 km/h 6.4 km/h 82 % 0.0 mm
22:37 6.8 °C 4.1 °C 1018.2 hPa Calm   6.4 km/h 83 % 0.0 mm
22:42 6.7 °C 3.8 °C 1017.8 hPa NE 1.6 km/h 6.4 km/h 82 % 0.0 mm
22:47 6.8 °C 3.1 °C 1018.2 hPa NE 4.8 km/h 4.8 km/h 77 % 0.0 mm
22:52 7.1 °C 3.0 °C 1018.2 hPa Calm   14.5 km/h 75 % 0.0 mm
22:57 7.1 °C 2.8 °C 1018.2 hPa Calm   14.5 km/h 74 % 0.0 mm
23:07 7.0 °C 2.9 °C 1018.2 hPa Calm   9.7 km/h 75 % 0.0 mm
23:12 6.9 °C 3.0 °C 1018.2 hPa NE 1.6 km/h 9.7 km/h 76 % 0.0 mm
23:17 6.8 °C 3.4 °C 1018.2 hPa Calm   9.7 km/h 79 % 0.0 mm
23:22 6.7 °C 3.3 °C 1018.2 hPa NE 4.8 km/h 11.3 km/h 79 % 0.0 mm
23:27 6.6 °C 3.6 °C 1018.5 hPa Calm   11.3 km/h 81 % 0.0 mm
23:32 6.5 °C 3.8 °C 1018.5 hPa Calm   4.8 km/h 83 % 0.0 mm
23:37 6.3 °C 3.8 °C 1018.5 hPa Calm   4.8 km/h 84 % 0.0 mm
23:42 6.2 °C 4.0 °C 1018.5 hPa ENE 1.6 km/h 3.2 km/h 86 % 0.0 mm
23:47 6.1 °C 3.9 °C 1018.5 hPa Calm   1.6 km/h 86 % 0.0 mm
23:52 6.1 °C 3.8 °C 1018.5 hPa ENE 1.6 km/h 4.8 km/h 85 % 0.0 mm
23:57 6.1 °C 3.9 °C 1018.8 hPa NE 1.6 km/h 4.8 km/h 86 % 0.0 mm
Meteo18
Compliments of Weather Underground - 4 mb

Script developed by  Jim McMurry - jmcmurry@mwt.net Adapted for the template by  Wim van der Kuil - Leuven-Template.eu

You find our weather info also at:

European Weather Network

Weather Underground

Equipment we use:

Weather-station
Davis Vue

Weather-program
Meteohub

Weather-server
Raspberry PI 2 B+

Provider
1 and 1

Davis Vue

Meteohub

Raspberry PI 2 B+

1 and 1